sensor_id;sensor_type;location;lat;lon;timestamp;pressure;altitude;pressure_sealevel;temperature;humidity
54512;BME280;40419;47.438;19.026;2023-02-28T00:01:30;100924.22;;;-0.11;64.73
54512;BME280;40419;47.438;19.026;2023-02-28T00:03:55;100921.59;;;-0.24;64.34
54512;BME280;40419;47.438;19.026;2023-02-28T00:06:24;100931.59;;;-0.14;65.10
54512;BME280;40419;47.438;19.026;2023-02-28T00:08:51;100931.16;;;-0.08;64.43
54512;BME280;40419;47.438;19.026;2023-02-28T00:11:22;100926.78;;;-0.09;64.00
54512;BME280;40419;47.438;19.026;2023-02-28T00:13:47;100939.13;;;-0.08;65.58
54512;BME280;40419;47.438;19.026;2023-02-28T00:16:18;100939.78;;;-0.17;65.60
54512;BME280;40419;47.438;19.026;2023-02-28T00:18:46;100938.59;;;-0.01;65.18
54512;BME280;40419;47.438;19.026;2023-02-28T00:21:16;100941.69;;;-0.07;65.32
54512;BME280;40419;47.438;19.026;2023-02-28T00:23:45;100941.91;;;-0.10;65.48
54512;BME280;40419;47.438;19.026;2023-02-28T00:26:13;100946.06;;;-0.19;66.09
54512;BME280;40419;47.438;19.026;2023-02-28T00:28:42;100947.75;;;-0.05;66.83
54512;BME280;40419;47.438;19.026;2023-02-28T00:31:07;100948.19;;;0.02;68.51
54512;BME280;40419;47.438;19.026;2023-02-28T00:33:34;100951.19;;;-0.03;67.61
54512;BME280;40419;47.438;19.026;2023-02-28T00:36:09;100954.13;;;0.06;67.00
54512;BME280;40419;47.438;19.026;2023-02-28T00:38:38;100959.69;;;0.03;67.51
54512;BME280;40419;47.438;19.026;2023-02-28T00:41:09;100949.69;;;0.06;67.82
54512;BME280;40419;47.438;19.026;2023-02-28T00:43:40;100953.19;;;0.07;68.74
54512;BME280;40419;47.438;19.026;2023-02-28T00:46:08;100969.72;;;-0.01;68.20
54512;BME280;40419;47.438;19.026;2023-02-28T00:48:34;100959.78;;;0.01;67.22
54512;BME280;40419;47.438;19.026;2023-02-28T00:51:02;100958.28;;;0.10;67.75
54512;BME280;40419;47.438;19.026;2023-02-28T00:53:30;100960.13;;;0.09;69.22
54512;BME280;40419;47.438;19.026;2023-02-28T00:56:00;100965.97;;;0.14;69.10
54512;BME280;40419;47.438;19.026;2023-02-28T00:58:26;100955.31;;;0.14;68.34
54512;BME280;40419;47.438;19.026;2023-02-28T01:00:52;100952.56;;;0.03;67.70
54512;BME280;40419;47.438;19.026;2023-02-28T01:03:21;100957.75;;;0.30;68.79
54512;BME280;40419;47.438;19.026;2023-02-28T01:05:52;100953.84;;;-0.03;68.80
54512;BME280;40419;47.438;19.026;2023-02-28T01:08:18;100947.13;;;0.05;69.75
54512;BME280;40419;47.438;19.026;2023-02-28T01:10:46;100959.03;;;0.12;70.90
54512;BME280;40419;47.438;19.026;2023-02-28T01:13:14;100961.81;;;0.10;74.67
54512;BME280;40419;47.438;19.026;2023-02-28T01:15:43;100954.56;;;0.12;74.10
54512;BME280;40419;47.438;19.026;2023-02-28T01:18:13;100963.81;;;0.20;71.65
54512;BME280;40419;47.438;19.026;2023-02-28T01:20:39;100955.84;;;0.07;73.37
54512;BME280;40419;47.438;19.026;2023-02-28T01:23:05;100962.13;;;0.06;71.07
54512;BME280;40419;47.438;19.026;2023-02-28T01:25:34;100961.19;;;0.07;72.75
54512;BME280;40419;47.438;19.026;2023-02-28T01:28:04;100952.56;;;0.03;73.03
54512;BME280;40419;47.438;19.026;2023-02-28T01:30:30;100955.00;;;0.06;71.95
54512;BME280;40419;47.438;19.026;2023-02-28T01:33:01;100962.78;;;0.09;70.51
54512;BME280;40419;47.438;19.026;2023-02-28T01:35:32;100960.75;;;0.13;73.97
54512;BME280;40419;47.438;19.026;2023-02-28T01:38:01;100964.34;;;0.12;71.72
54512;BME280;40419;47.438;19.026;2023-02-28T01:40:26;100958.41;;;0.08;70.63
54512;BME280;40419;47.438;19.026;2023-02-28T01:42:54;100956.91;;;0.17;70.50
54512;BME280;40419;47.438;19.026;2023-02-28T01:45:31;100954.78;;;0.09;69.56
54512;BME280;40419;47.438;19.026;2023-02-28T01:48:05;100956.69;;;0.20;69.65
54512;BME280;40419;47.438;19.026;2023-02-28T01:50:38;100957.84;;;0.16;69.84
54512;BME280;40419;47.438;19.026;2023-02-28T01:53:11;100961.16;;;0.20;70.52
54512;BME280;40419;47.438;19.026;2023-02-28T01:55:41;100949.66;;;0.19;71.07
54512;BME280;40419;47.438;19.026;2023-02-28T01:58:08;100947.94;;;0.18;69.05
54512;BME280;40419;47.438;19.026;2023-02-28T02:00:34;100947.44;;;0.13;69.47
54512;BME280;40419;47.438;19.026;2023-02-28T02:03:12;100957.78;;;0.05;71.17
54512;BME280;40419;47.438;19.026;2023-02-28T02:05:39;100948.81;;;0.06;68.59
54512;BME280;40419;47.438;19.026;2023-02-28T02:08:15;100948.09;;;0.04;69.55
54512;BME280;40419;47.438;19.026;2023-02-28T02:10:50;100949.03;;;0.03;70.42
54512;BME280;40419;47.438;19.026;2023-02-28T02:18:42;100942.38;;;0.21;66.43
54512;BME280;40419;47.438;19.026;2023-02-28T02:21:43;100952.63;;;0.27;65.50
54512;BME280;40419;47.438;19.026;2023-02-28T02:35:24;100948.25;;;0.13;67.95
54512;BME280;40419;47.438;19.026;2023-02-28T02:40:51;100956.38;;;0.12;67.58
54512;BME280;40419;47.438;19.026;2023-02-28T02:43:25;100945.09;;;0.08;69.23
54512;BME280;40419;47.438;19.026;2023-02-28T02:46:04;100957.53;;;0.21;70.32
54512;BME280;40419;47.438;19.026;2023-02-28T02:48:34;100948.47;;;0.23;70.02
54512;BME280;40419;47.438;19.026;2023-02-28T02:51:07;100945.44;;;0.41;66.61
54512;BME280;40419;47.438;19.026;2023-02-28T02:53:46;100944.88;;;0.24;67.69
54512;BME280;40419;47.438;19.026;2023-02-28T02:56:17;100955.63;;;0.10;67.03
54512;BME280;40419;47.438;19.026;2023-02-28T02:58:47;100955.75;;;0.08;67.61
54512;BME280;40419;47.438;19.026;2023-02-28T03:01:23;100953.50;;;-0.11;66.77
54512;BME280;40419;47.438;19.026;2023-02-28T03:04:19;100953.06;;;-0.05;65.39
54512;BME280;40419;47.438;19.026;2023-02-28T03:06:46;100961.19;;;0.07;64.27
54512;BME280;40419;47.438;19.026;2023-02-28T03:09:12;100952.78;;;-0.13;65.20
54512;BME280;40419;47.438;19.026;2023-02-28T03:11:42;100957.56;;;0.08;64.60
54512;BME280;40419;47.438;19.026;2023-02-28T03:14:30;100957.66;;;-0.07;64.65
54512;BME280;40419;47.438;19.026;2023-02-28T03:20:02;100958.28;;;0.10;65.83
54512;BME280;40419;47.438;19.026;2023-02-28T03:30:15;100958.63;;;0.05;63.57
54512;BME280;40419;47.438;19.026;2023-02-28T03:33:07;100960.97;;;-0.16;63.93
54512;BME280;40419;47.438;19.026;2023-02-28T03:35:43;100969.81;;;-0.03;63.86
54512;BME280;40419;47.438;19.026;2023-02-28T03:40:54;100964.91;;;-0.09;64.83
54512;BME280;40419;47.438;19.026;2023-02-28T03:43:28;100968.75;;;-0.13;64.20
54512;BME280;40419;47.438;19.026;2023-02-28T03:46:02;100972.34;;;-0.14;65.01
54512;BME280;40419;47.438;19.026;2023-02-28T03:48:38;100962.47;;;-0.12;65.46
54512;BME280;40419;47.438;19.026;2023-02-28T03:51:10;100970.75;;;-0.04;65.04
54512;BME280;40419;47.438;19.026;2023-02-28T03:53:44;100976.63;;;0.02;66.25
54512;BME280;40419;47.438;19.026;2023-02-28T03:56:18;100970.56;;;-0.13;65.78
54512;BME280;40419;47.438;19.026;2023-02-28T03:58:54;100963.09;;;-0.08;65.04
54512;BME280;40419;47.438;19.026;2023-02-28T04:04:04;100960.44;;;-0.08;66.99
54512;BME280;40419;47.438;19.026;2023-02-28T04:06:33;100962.22;;;0.04;65.62
54512;BME280;40419;47.438;19.026;2023-02-28T04:09:03;100962.03;;;-0.06;65.25
54512;BME280;40419;47.438;19.026;2023-02-28T04:11:52;100951.19;;;-0.03;65.40
54512;BME280;40419;47.438;19.026;2023-02-28T04:14:23;100949.06;;;-0.10;65.73
54512;BME280;40419;47.438;19.026;2023-02-28T04:16:49;100947.34;;;0.02;65.56
54512;BME280;40419;47.438;19.026;2023-02-28T04:19:18;100958.00;;;0.02;65.67
54512;BME280;40419;47.438;19.026;2023-02-28T04:21:47;100946.59;;;-0.01;65.37
54512;BME280;40419;47.438;19.026;2023-02-28T04:24:25;100950.09;;;-0.26;66.70
54512;BME280;40419;47.438;19.026;2023-02-28T04:26:52;100958.22;;;-0.14;65.08
54512;BME280;40419;47.438;19.026;2023-02-28T04:31:56;100956.41;;;-0.01;64.77
54512;BME280;40419;47.438;19.026;2023-02-28T04:34:26;100952.78;;;0.00;64.84
54512;BME280;40419;47.438;19.026;2023-02-28T04:36:52;100951.16;;;0.10;65.22
54512;BME280;40419;47.438;19.026;2023-02-28T04:39:22;100948.50;;;-0.03;64.81
54512;BME280;40419;47.438;19.026;2023-02-28T04:41:50;100945.84;;;-0.03;64.19
54512;BME280;40419;47.438;19.026;2023-02-28T04:44:16;100955.34;;;0.02;64.48
54512;BME280;40419;47.438;19.026;2023-02-28T04:46:44;100948.41;;;-0.01;63.52
54512;BME280;40419;47.438;19.026;2023-02-28T04:49:11;100947.25;;;-0.23;64.80
54512;BME280;40419;47.438;19.026;2023-02-28T04:51:39;100953.41;;;-0.22;65.39
54512;BME280;40419;47.438;19.026;2023-02-28T04:54:07;100946.94;;;-0.18;66.68
54512;BME280;40419;47.438;19.026;2023-02-28T04:56:33;100952.56;;;-0.10;65.74
54512;BME280;40419;47.438;19.026;2023-02-28T04:59:01;100947.97;;;-0.08;68.33
54512;BME280;40419;47.438;19.026;2023-02-28T05:01:31;100952.13;;;-0.04;67.97
54512;BME280;40419;47.438;19.026;2023-02-28T05:03:59;100954.56;;;-0.01;67.85
54512;BME280;40419;47.438;19.026;2023-02-28T05:06:31;100947.75;;;0.08;66.43
54512;BME280;40419;47.438;19.026;2023-02-28T05:08:57;100945.41;;;0.04;67.10
54512;BME280;40419;47.438;19.026;2023-02-28T05:11:29;100949.69;;;-0.07;68.00
54512;BME280;40419;47.438;19.026;2023-02-28T05:14:05;100946.28;;;-0.09;68.29
54512;BME280;40419;47.438;19.026;2023-02-28T05:16:35;100951.59;;;-0.09;66.99
54512;BME280;40419;47.438;19.026;2023-02-28T05:19:01;100947.22;;;-0.10;66.94
54512;BME280;40419;47.438;19.026;2023-02-28T05:23:57;100948.72;;;-0.06;66.48
54512;BME280;40419;47.438;19.026;2023-02-28T05:26:28;100956.16;;;-0.11;66.37
54512;BME280;40419;47.438;19.026;2023-02-28T05:28:56;100958.41;;;-0.30;65.97
54512;BME280;40419;47.438;19.026;2023-02-28T05:31:22;100965.25;;;-0.13;65.05
54512;BME280;40419;47.438;19.026;2023-02-28T05:33:48;100966.72;;;-0.22;66.37
54512;BME280;40419;47.438;19.026;2023-02-28T05:36:14;100958.31;;;-0.16;65.42
54512;BME280;40419;47.438;19.026;2023-02-28T05:38:43;100961.38;;;-0.09;65.15
54512;BME280;40419;47.438;19.026;2023-02-28T05:41:16;100964.91;;;0.04;66.49
54512;BME280;40419;47.438;19.026;2023-02-28T05:43:44;100964.28;;;0.01;66.91
54512;BME280;40419;47.438;19.026;2023-02-28T05:46:13;100964.16;;;0.02;66.82
54512;BME280;40419;47.438;19.026;2023-02-28T05:48:42;100974.16;;;0.11;67.65
54512;BME280;40419;47.438;19.026;2023-02-28T05:51:13;100972.34;;;0.12;67.97
54512;BME280;40419;47.438;19.026;2023-02-28T05:53:38;100977.44;;;0.15;66.63
54512;BME280;40419;47.438;19.026;2023-02-28T05:56:04;100974.78;;;0.15;67.59
54512;BME280;40419;47.438;19.026;2023-02-28T05:58:30;100981.63;;;0.19;66.79
54512;BME280;40419;47.438;19.026;2023-02-28T06:00:59;100973.63;;;0.32;66.94
54512;BME280;40419;47.438;19.026;2023-02-28T06:03:27;100973.19;;;0.38;67.35
54512;BME280;40419;47.438;19.026;2023-02-28T06:06:01;100975.41;;;0.44;67.24
54512;BME280;40419;47.438;19.026;2023-02-28T06:08:26;100974.88;;;0.39;66.75
54512;BME280;40419;47.438;19.026;2023-02-28T06:10:57;100980.06;;;0.41;66.76
54512;BME280;40419;47.438;19.026;2023-02-28T06:13:25;100977.13;;;0.32;67.05
54512;BME280;40419;47.438;19.026;2023-02-28T06:15:53;100977.75;;;0.36;68.54
54512;BME280;40419;47.438;19.026;2023-02-28T06:18:18;100979.25;;;0.40;67.06
54512;BME280;40419;47.438;19.026;2023-02-28T06:20:44;100980.06;;;0.41;68.29
54512;BME280;40419;47.438;19.026;2023-02-28T06:23:17;100982.00;;;0.39;68.88
54512;BME280;40419;47.438;19.026;2023-02-28T06:25:45;100986.06;;;0.44;68.25
54512;BME280;40419;47.438;19.026;2023-02-28T06:28:10;100989.00;;;0.52;68.33
54512;BME280;40419;47.438;19.026;2023-02-28T06:30:38;100989.00;;;0.65;67.62
54512;BME280;40419;47.438;19.026;2023-02-28T06:33:06;100984.84;;;0.61;68.29
54512;BME280;40419;47.438;19.026;2023-02-28T06:35:36;100993.00;;;0.47;67.31
54512;BME280;40419;47.438;19.026;2023-02-28T06:38:03;101005.44;;;0.59;67.46
54512;BME280;40419;47.438;19.026;2023-02-28T06:40:29;101009.16;;;0.69;66.33
54512;BME280;40419;47.438;19.026;2023-02-28T06:42:59;101009.28;;;0.55;65.51
54512;BME280;40419;47.438;19.026;2023-02-28T06:45:25;101001.34;;;0.66;66.71
54512;BME280;40419;47.438;19.026;2023-02-28T06:47:54;101010.16;;;0.80;64.90
54512;BME280;40419;47.438;19.026;2023-02-28T06:50:25;101002.88;;;0.58;64.95
54512;BME280;40419;47.438;19.026;2023-02-28T06:52:52;101004.44;;;0.60;66.56
54512;BME280;40419;47.438;19.026;2023-02-28T06:55:21;101005.03;;;0.90;63.63
54512;BME280;40419;47.438;19.026;2023-02-28T06:57:52;101002.94;;;0.69;64.39
54512;BME280;40419;47.438;19.026;2023-02-28T07:00:22;101000.38;;;0.80;65.06
54512;BME280;40419;47.438;19.026;2023-02-28T07:02:48;101002.69;;;0.85;66.05
54512;BME280;40419;47.438;19.026;2023-02-28T07:05:13;101012.97;;;1.02;64.80
54512;BME280;40419;47.438;19.026;2023-02-28T07:07:39;101015.38;;;0.81;64.79
54512;BME280;40419;47.438;19.026;2023-02-28T07:10:14;101014.22;;;1.10;66.46
54512;BME280;40419;47.438;19.026;2023-02-28T07:12:42;101018.06;;;1.05;65.20
54512;BME280;40419;47.438;19.026;2023-02-28T07:15:09;101019.78;;;1.06;67.87
54512;BME280;40419;47.438;19.026;2023-02-28T07:17:34;101018.06;;;1.30;64.87
54512;BME280;40419;47.438;19.026;2023-02-28T07:20:08;101035.53;;;1.22;62.59
54512;BME280;40419;47.438;19.026;2023-02-28T07:22:36;101019.91;;;1.05;63.42
54512;BME280;40419;47.438;19.026;2023-02-28T07:25:01;101022.75;;;1.15;62.91
54512;BME280;40419;47.438;19.026;2023-02-28T07:27:27;101029.84;;;1.27;62.37
54512;BME280;40419;47.438;19.026;2023-02-28T07:29:55;101030.34;;;1.08;64.16
54512;BME280;40419;47.438;19.026;2023-02-28T07:32:21;101031.06;;;1.10;62.66
54512;BME280;40419;47.438;19.026;2023-02-28T07:34:47;101033.81;;;1.21;64.54
54512;BME280;40419;47.438;19.026;2023-02-28T07:37:18;101035.53;;;1.22;62.23
54512;BME280;40419;47.438;19.026;2023-02-28T07:39:48;101038.19;;;1.22;62.61
54512;BME280;40419;47.438;19.026;2023-02-28T07:42:13;101041.75;;;1.34;63.10
54512;BME280;40419;47.438;19.026;2023-02-28T07:44:42;101040.28;;;1.30;62.22
54512;BME280;40419;47.438;19.026;2023-02-28T07:47:10;101039.81;;;1.36;64.02
54512;BME280;40419;47.438;19.026;2023-02-28T07:49:36;101035.09;;;1.40;63.51
54512;BME280;40419;47.438;19.026;2023-02-28T07:52:04;101034.97;;;1.41;63.59
54512;BME280;40419;47.438;19.026;2023-02-28T07:54:33;101043.47;;;1.71;61.42
54512;BME280;40419;47.438;19.026;2023-02-28T07:57:01;101046.94;;;1.60;61.01
54512;BME280;40419;47.438;19.026;2023-02-28T07:59:28;101043.91;;;1.53;61.07
54512;BME280;40419;47.438;19.026;2023-02-28T08:01:56;101033.91;;;1.44;60.72
54512;BME280;40419;47.438;19.026;2023-02-28T08:04:24;101031.63;;;1.51;61.99
54512;BME280;40419;47.438;19.026;2023-02-28T08:06:50;101038.56;;;1.53;60.35
54512;BME280;40419;47.438;19.026;2023-02-28T08:09:20;101030.38;;;1.68;58.52
54512;BME280;40419;47.438;19.026;2023-02-28T08:11:48;101040.94;;;1.81;60.73
54512;BME280;40419;47.438;19.026;2023-02-28T08:14:13;101031.63;;;1.86;59.48
54512;BME280;40419;47.438;19.026;2023-02-28T08:16:41;101032.94;;;1.81;58.21
54512;BME280;40419;47.438;19.026;2023-02-28T08:19:08;101034.09;;;2.12;60.86
54512;BME280;40419;47.438;19.026;2023-02-28T08:21:36;101039.22;;;2.15;58.50
54512;BME280;40419;47.438;19.026;2023-02-28T08:24:02;101031.81;;;2.41;58.09
54512;BME280;40419;47.438;19.026;2023-02-28T08:26:32;101039.56;;;2.22;60.19
54512;BME280;40419;47.438;19.026;2023-02-28T08:28:58;101032.78;;;2.40;58.17
54512;BME280;40419;47.438;19.026;2023-02-28T08:31:26;101031.94;;;2.40;56.25
54512;BME280;40419;47.438;19.026;2023-02-28T08:33:51;101038.00;;;2.53;57.31
54512;BME280;40419;47.438;19.026;2023-02-28T08:36:18;101039.28;;;2.02;58.07
54512;BME280;40419;47.438;19.026;2023-02-28T08:38:47;101031.09;;;2.62;57.28
54512;BME280;40419;47.438;19.026;2023-02-28T08:41:12;101039.09;;;2.84;54.94
54512;BME280;40419;47.438;19.026;2023-02-28T08:43:41;101024.97;;;2.03;55.50
54512;BME280;40419;47.438;19.026;2023-02-28T08:46:07;101026.72;;;2.27;56.13
54512;BME280;40419;47.438;19.026;2023-02-28T08:48:39;101038.00;;;2.30;55.66
54512;BME280;40419;47.438;19.026;2023-02-28T08:51:11;101036.53;;;2.49;56.78
54512;BME280;40419;47.438;19.026;2023-02-28T08:53:42;101033.97;;;2.70;55.62
54512;BME280;40419;47.438;19.026;2023-02-28T08:56:19;101033.50;;;2.20;56.31
54512;BME280;40419;47.438;19.026;2023-02-28T08:58:48;101032.44;;;2.45;56.38
54512;BME280;40419;47.438;19.026;2023-02-28T09:03:41;101039.81;;;2.41;56.10
54512;BME280;40419;47.438;19.026;2023-02-28T09:06:08;101036.06;;;2.66;56.42
54512;BME280;40419;47.438;19.026;2023-02-28T09:08:34;101047.34;;;2.70;57.60
54512;BME280;40419;47.438;19.026;2023-02-28T09:11:03;101042.16;;;2.57;56.44
54512;BME280;40419;47.438;19.026;2023-02-28T09:13:32;101027.00;;;3.01;55.96
54512;BME280;40419;47.438;19.026;2023-02-28T09:16:01;101040.06;;;2.83;54.99
54512;BME280;40419;47.438;19.026;2023-02-28T09:18:27;101033.66;;;3.18;55.26
54512;BME280;40419;47.438;19.026;2023-02-28T09:20:56;101034.00;;;2.47;55.96
54512;BME280;40419;47.438;19.026;2023-02-28T09:23:24;101033.16;;;2.36;57.27
54512;BME280;40419;47.438;19.026;2023-02-28T09:25:55;101036.44;;;2.62;56.98
54512;BME280;40419;47.438;19.026;2023-02-28T09:28:21;101037.63;;;2.58;57.15
54512;BME280;40419;47.438;19.026;2023-02-28T09:30:49;101042.16;;;2.57;56.68
54512;BME280;40419;47.438;19.026;2023-02-28T09:33:16;101037.06;;;3.21;55.45
54512;BME280;40419;47.438;19.026;2023-02-28T09:35:42;101048.06;;;2.95;55.64
54512;BME280;40419;47.438;19.026;2023-02-28T09:38:11;101038.50;;;2.47;56.68
54512;BME280;40419;47.438;19.026;2023-02-28T09:40:48;101037.75;;;2.56;57.63
54512;BME280;40419;47.438;19.026;2023-02-28T09:43:16;101040.31;;;2.69;57.20
54512;BME280;40419;47.438;19.026;2023-02-28T09:45:55;101045.66;;;2.80;56.82
54512;BME280;40419;47.438;19.026;2023-02-28T09:48:35;101037.91;;;2.66;56.32
54512;BME280;40419;47.438;19.026;2023-02-28T09:51:14;101043.72;;;2.82;57.94
54512;BME280;40419;47.438;19.026;2023-02-28T09:53:41;101036.25;;;2.97;56.55
54512;BME280;40419;47.438;19.026;2023-02-28T09:56:11;101042.59;;;2.85;56.50
54512;BME280;40419;47.438;19.026;2023-02-28T09:58:49;101033.19;;;3.13;56.48
54512;BME280;40419;47.438;19.026;2023-02-28T10:06:19;101027.72;;;3.47;55.79
54512;BME280;40419;47.438;19.026;2023-02-28T10:09:00;101025.03;;;3.15;56.36
54512;BME280;40419;47.438;19.026;2023-02-28T10:11:27;101020.19;;;3.41;56.34
54512;BME280;40419;47.438;19.026;2023-02-28T10:13:54;101021.19;;;3.40;57.21
54512;BME280;40419;47.438;19.026;2023-02-28T10:22:11;101020.13;;;3.31;57.17
54512;BME280;40419;47.438;19.026;2023-02-28T10:24:48;101024.56;;;3.42;55.93
54512;BME280;40419;47.438;19.026;2023-02-28T10:27:27;101017.44;;;2.99;56.98
54512;BME280;40419;47.438;19.026;2023-02-28T10:29:56;101020.53;;;3.15;58.14
54512;BME280;40419;47.438;19.026;2023-02-28T10:37:27;101004.09;;;3.52;60.04
54512;BME280;40419;47.438;19.026;2023-02-28T10:39:56;101015.66;;;3.21;57.13
54512;BME280;40419;47.438;19.026;2023-02-28T10:42:22;100999.28;;;3.35;56.75
54512;BME280;40419;47.438;19.026;2023-02-28T10:47:56;100994.22;;;3.74;56.40
54512;BME280;40419;47.438;19.026;2023-02-28T10:50:36;100986.59;;;3.69;57.32
54512;BME280;40419;47.438;19.026;2023-02-28T11:01:44;100982.84;;;3.82;55.91
54512;BME280;40419;47.438;19.026;2023-02-28T11:06:46;100983.13;;;4.31;55.97
54512;BME280;40419;47.438;19.026;2023-02-28T11:09:23;100990.66;;;4.16;55.19
54512;BME280;40419;47.438;19.026;2023-02-28T11:11:53;100998.22;;;4.32;55.16
54512;BME280;40419;47.438;19.026;2023-02-28T11:14:24;100995.34;;;3.93;55.47
54512;BME280;40419;47.438;19.026;2023-02-28T11:16:59;100989.19;;;4.02;55.85
54512;BME280;40419;47.438;19.026;2023-02-28T11:19:37;100985.78;;;4.00;57.12
54512;BME280;40419;47.438;19.026;2023-02-28T11:22:08;100982.75;;;4.14;56.52
54512;BME280;40419;47.438;19.026;2023-02-28T11:24:44;100983.19;;;4.19;55.26
54512;BME280;40419;47.438;19.026;2023-02-28T11:30:01;100986.19;;;3.95;57.03
54512;BME280;40419;47.438;19.026;2023-02-28T11:32:29;100994.84;;;4.08;56.88
54512;BME280;40419;47.438;19.026;2023-02-28T11:37:39;100986.66;;;4.00;58.46
54512;BME280;40419;47.438;19.026;2023-02-28T11:40:18;100985.59;;;4.22;58.00
54512;BME280;40419;47.438;19.026;2023-02-28T11:48:10;100978.03;;;4.78;55.38
54512;BME280;40419;47.438;19.026;2023-02-28T12:00:57;100969.94;;;4.58;54.82
54512;BME280;40419;47.438;19.026;2023-02-28T12:14:53;100948.25;;;4.71;55.91
54512;BME280;40419;47.438;19.026;2023-02-28T12:20:25;100948.94;;;4.73;55.03
54512;BME280;40419;47.438;19.026;2023-02-28T12:25:38;100929.56;;;4.60;56.62
54512;BME280;40419;47.438;19.026;2023-02-28T12:28:14;100938.44;;;4.41;54.88
54512;BME280;40419;47.438;19.026;2023-02-28T12:30:51;100939.94;;;4.34;55.58
54512;BME280;40419;47.438;19.026;2023-02-28T12:33:24;100928.00;;;4.57;57.08
54512;BME280;40419;47.438;19.026;2023-02-28T12:36:01;100927.34;;;4.65;56.11
54512;BME280;40419;47.438;19.026;2023-02-28T12:38:38;100915.91;;;4.73;55.26
54512;BME280;40419;47.438;19.026;2023-02-28T12:43:44;100924.25;;;4.99;56.10
54512;BME280;40419;47.438;19.026;2023-02-28T12:46:19;100922.34;;;4.51;56.80
54512;BME280;40419;47.438;19.026;2023-02-28T12:48:55;100927.91;;;4.69;56.27
54512;BME280;40419;47.438;19.026;2023-02-28T12:51:24;100924.78;;;4.73;57.56
54512;BME280;40419;47.438;19.026;2023-02-28T13:10:38;100898.97;;;4.82;57.27
54512;BME280;40419;47.438;19.026;2023-02-28T13:13:05;100904.19;;;4.84;57.52
54512;BME280;40419;47.438;19.026;2023-02-28T13:15:33;100909.97;;;4.79;56.24
54512;BME280;40419;47.438;19.026;2023-02-28T13:18:03;100903.91;;;4.96;56.91
54512;BME280;40419;47.438;19.026;2023-02-28T13:20:37;100895.59;;;4.90;55.56
54512;BME280;40419;47.438;19.026;2023-02-28T13:29:21;100904.03;;;4.95;57.81
54512;BME280;40419;47.438;19.026;2023-02-28T13:34:32;100889.38;;;4.89;56.86
54512;BME280;40419;47.438;19.026;2023-02-28T13:47:29;100875.53;;;4.94;58.91
54512;BME280;40419;47.438;19.026;2023-02-28T14:06:50;100869.31;;;4.84;60.16
54512;BME280;40419;47.438;19.026;2023-02-28T14:09:24;100866.06;;;4.90;61.01
54512;BME280;40419;47.438;19.026;2023-02-28T14:11:51;100866.50;;;4.85;59.53
54512;BME280;40419;47.438;19.026;2023-02-28T14:17:14;100865.66;;;4.85;58.81
54512;BME280;40419;47.438;19.026;2023-02-28T14:19:44;100860.69;;;4.80;59.87
54512;BME280;40419;47.438;19.026;2023-02-28T14:30:56;100854.06;;;4.94;59.37
54512;BME280;40419;47.438;19.026;2023-02-28T14:38:52;100850.69;;;4.82;60.04
54512;BME280;40419;47.438;19.026;2023-02-28T14:41:40;100851.22;;;4.56;59.20
54512;BME280;40419;47.438;19.026;2023-02-28T14:44:25;100851.38;;;4.74;59.71
54512;BME280;40419;47.438;19.026;2023-02-28T14:47:01;100852.63;;;4.70;59.11
54512;BME280;40419;47.438;19.026;2023-02-28T14:49:42;100848.41;;;4.68;59.61
54512;BME280;40419;47.438;19.026;2023-02-28T14:52:27;100842.19;;;4.77;59.19
54512;BME280;40419;47.438;19.026;2023-02-28T14:55:04;100853.34;;;4.72;59.64
54512;BME280;40419;47.438;19.026;2023-02-28T14:57:43;100857.28;;;4.58;61.37
54512;BME280;40419;47.438;19.026;2023-02-28T15:00:25;100858.28;;;4.67;60.58
54512;BME280;40419;47.438;19.026;2023-02-28T15:02:51;100846.84;;;4.75;60.09
54512;BME280;40419;47.438;19.026;2023-02-28T15:05:31;100861.53;;;4.61;61.78
54512;BME280;40419;47.438;19.026;2023-02-28T15:08:06;100851.63;;;4.61;61.42
54512;BME280;40419;47.438;19.026;2023-02-28T15:10:39;100866.03;;;4.80;60.47
54512;BME280;40419;47.438;19.026;2023-02-28T15:13:15;100859.13;;;4.68;62.14
54512;BME280;40419;47.438;19.026;2023-02-28T15:15:51;100859.13;;;4.58;60.84
54512;BME280;40419;47.438;19.026;2023-02-28T15:21:12;100863.09;;;4.73;61.05
54512;BME280;40419;47.438;19.026;2023-02-28T15:23:44;100865.59;;;4.46;61.05
54512;BME280;40419;47.438;19.026;2023-02-28T15:26:15;100856.28;;;4.50;61.11
54512;BME280;40419;47.438;19.026;2023-02-28T15:28:44;100858.13;;;4.49;62.15
54512;BME280;40419;47.438;19.026;2023-02-28T15:31:26;100858.53;;;4.54;62.48
54512;BME280;40419;47.438;19.026;2023-02-28T15:34:05;100857.44;;;4.47;61.55
54512;BME280;40419;47.438;19.026;2023-02-28T15:36:34;100856.69;;;4.45;63.17
54512;BME280;40419;47.438;19.026;2023-02-28T15:39:18;100851.63;;;4.42;64.18
54512;BME280;40419;47.438;19.026;2023-02-28T15:41:46;100859.09;;;4.38;63.99
54512;BME280;40419;47.438;19.026;2023-02-28T15:44:30;100857.75;;;4.13;65.01
54512;BME280;40419;47.438;19.026;2023-02-28T15:47:07;100855.81;;;4.15;66.05
54512;BME280;40419;47.438;19.026;2023-02-28T15:49:51;100853.38;;;4.12;66.09
54512;BME280;40419;47.438;19.026;2023-02-28T15:52:37;100853.78;;;4.07;66.15
54512;BME280;40419;47.438;19.026;2023-02-28T15:55:23;100846.16;;;4.03;65.40
54512;BME280;40419;47.438;19.026;2023-02-28T15:57:56;100852.34;;;3.94;65.61
54512;BME280;40419;47.438;19.026;2023-02-28T16:00:29;100852.09;;;4.06;66.22
54512;BME280;40419;47.438;19.026;2023-02-28T16:02:59;100858.97;;;3.89;66.32
54512;BME280;40419;47.438;19.026;2023-02-28T16:05:31;100853.84;;;3.86;65.70
54512;BME280;40419;47.438;19.026;2023-02-28T16:08:06;100863.19;;;3.92;66.23
54512;BME280;40419;47.438;19.026;2023-02-28T16:10:36;100864.75;;;3.95;66.77
54512;BME280;40419;47.438;19.026;2023-02-28T16:13:02;100863.31;;;3.90;67.58